| time (UTC) | temp F | wind direction | speed knots | gust knots | rain 1hr in | rain 24hr in | rain mn in | humidity % | barometer mb |
| 20260906111331 | 65 | 14 | 0.0 | 0.0 | 0.00 | 0.00 | 0.00 | 99 | 1019.3 |
| 20260906110826 | 65 | 338 | 0.0 | 0.0 | 0.00 | 0.00 | 0.00 | 99 | 1019.0 |
| 20260906110322 | 65 | 336 | 0.0 | 0.0 | 0.00 | 0.00 | 0.00 | 99 | 1018.8 |
| 20260906105821 | 65 | 339 | 0.0 | 0.0 | 0.00 | 0.00 | 0.00 | 99 | 1018.8 |
| 20260906105317 | 65 | 337 | 0.0 | 0.0 | 0.00 | 0.00 | 0.00 | 99 | 1018.8 |
| 20260906104813 | 65 | 337 | 0.0 | 0.0 | 0.00 | 0.00 | 0.00 | 99 | 1018.8 |
| 20260906104311 | 65 | 337 | 0.0 | 0.0 | 0.00 | 0.00 | 0.00 | 99 | 1018.8 |
| 20260906103810 | 65 | 337 | 0.0 | 0.0 | 0.00 | 0.00 | 0.00 | 99 | 1018.9 |
| 20260906103309 | 65 | 337 | 0.0 | 0.0 | 0.00 | 0.00 | 0.00 | 99 | 1018.6 |
| 20260906102805 | 65 | 337 | 0.0 | 0.0 | 0.00 | 0.00 | 0.00 | 99 | 1018.7 |
| 20260906102306 | 65 | 337 | 0.0 | 0.0 | 0.00 | 0.00 | 0.00 | 99 | 1018.7 |
| 20260906101759 | 65 | 338 | 0.0 | 0.0 | 0.00 | 0.00 | 0.00 | 99 | 1018.5 |
| 20260906101254 | 65 | 338 | 0.0 | 0.0 | 0.00 | 0.00 | 0.00 | 99 | 1018.4 |
| 20260906100749 | 65 | 338 | 0.0 | 0.0 | 0.00 | 0.00 | 0.00 | 99 | 1018.5 |
| 20260906100248 | 65 | 338 | 0.0 | 0.0 | 0.00 | 0.00 | 0.00 | 99 | 1018.4 |
| 20260906095744 | 65 | 338 | 0.0 | 0.0 | 0.00 | 0.00 | 0.00 | 99 | 1018.3 |
| 20260906095239 | 65 | 286 | 0.0 | 0.0 | 0.00 | 0.00 | 0.00 | 99 | 1018.4 |
| 20260906094738 | 65 | 279 | 0.0 | 0.0 | 0.00 | 0.00 | 0.00 | 99 | 1018.2 |
| 20260906094233 | 65 | 279 | 0.0 | 0.0 | 0.00 | 0.00 | 0.00 | 99 | 1018.2 |
| 20260906093730 | 65 | 279 | 0.0 | 0.0 | 0.00 | 0.00 | 0.00 | 99 | 1018.0 |
| 20260906093225 | 65 | 279 | 0.0 | 0.0 | 0.00 | 0.00 | 0.00 | 99 | 1018.2 |
| 20260906092721 | 66 | 279 | 0.0 | 0.0 | 0.00 | 0.00 | 0.00 | 99 | 1018.2 |
| 20260906092220 | 65 | 279 | 0.0 | 0.9 | 0.00 | 0.00 | 0.00 | 99 | 1017.9 |
| 20260906091717 | 65 | 280 | 0.0 | 0.0 | 0.00 | 0.00 | 0.00 | 99 | 1018.0 |
| 20260906091212 | 66 | 280 | 0.0 | 0.0 | 0.00 | 0.00 | 0.00 | 99 | 1018.0 |
| 20260906090708 | 65 | 280 | 0.0 | 0.0 | 0.00 | 0.00 | 0.00 | 99 | 1018.1 |
| 20260906090208 | 65 | 280 | 0.0 | 0.0 | 0.00 | 0.00 | 0.00 | 99 | 1017.9 |
| 20260906085707 | 65 | 280 | 0.9 | 1.7 | 0.00 | 0.00 | 0.00 | 99 | 1018.1 |
| 20260906085206 | 65 | 278 | 1.7 | 1.7 | 0.00 | 0.00 | 0.00 | 99 | 1018.1 |
| 20260906084701 | 65 | 280 | 0.0 | 0.0 | 0.00 | 0.00 | 0.00 | 99 | 1018.1 |
| 20260906084155 | 65 | 280 | 0.0 | 0.0 | 0.00 | 0.00 | 0.00 | 99 | 1018.0 |
| 20260906083650 | 65 | 280 | 0.0 | 0.0 | 0.00 | 0.00 | 0.00 | 99 | 1018.1 |
| 20260906083145 | 65 | 280 | 0.9 | 2.6 | 0.00 | 0.00 | 0.00 | 99 | 1018.3 |
| 20260906082640 | 65 | 285 | 1.7 | 2.6 | 0.00 | 0.00 | 0.00 | 99 | 1018.1 |
| 20260906082135 | 65 | 297 | 3.5 | 3.5 | 0.00 | 0.00 | 0.00 | 99 | 1018.2 |
| 20260906081631 | 65 | 291 | 1.7 | 2.6 | 0.00 | 0.00 | 0.00 | 99 | 1018.3 |
| 20260906081126 | 65 | 295 | 0.0 | 0.0 | 0.00 | 0.00 | 0.00 | 99 | 1018.3 |
| 20260906080623 | 65 | 296 | 0.0 | 0.0 | 0.00 | 0.00 | 0.00 | 99 | 1018.1 |
| 20260906080119 | 65 | 296 | 0.0 | 0.0 | 0.00 | 0.00 | 0.00 | 99 | 1018.1 |
| 20260906075618 | 65 | 296 | 0.0 | 1.7 | 0.00 | 0.00 | 0.00 | 99 | 1018.1 |
| 20260906075113 | 64 | 294 | 0.0 | 0.0 | 0.00 | 0.00 | 0.00 | 99 | 1018.1 |
| 20260906074608 | 64 | 294 | 0.0 | 0.0 | 0.00 | 0.00 | 0.00 | 99 | 1018.1 |
| 20260906074107 | 64 | 294 | 0.0 | 0.0 | 0.00 | 0.00 | 0.00 | 99 | 1018.0 |
| 20260906073602 | 64 | 294 | 0.0 | 0.0 | 0.00 | 0.00 | 0.00 | 99 | 1018.0 |
| 20260906073058 | 64 | 294 | 0.0 | 0.0 | 0.00 | 0.00 | 0.00 | 99 | 1018.1 |
| 20260906072552 | 64 | 294 | 0.0 | 0.0 | 0.00 | 0.00 | 0.00 | 99 | 1018.1 |
| 20260906072043 | 64 | 294 | 0.0 | 0.0 | 0.00 | 0.00 | 0.00 | 99 | 1018.3 |
| 20260906071539 | 65 | 294 | 0.0 | 0.0 | 0.00 | 0.00 | 0.00 | 99 | 1018.2 |
| 20260906071034 | 65 | 294 | 0.0 | 0.0 | 0.00 | 0.00 | 0.00 | 99 | 1018.2 |
| 20260906070531 | 65 | 294 | 0.0 | 0.0 | 0.00 | 0.00 | 0.00 | 99 | 1018.3 |
| 20260906070026 | 65 | 294 | 0.0 | 0.9 | 0.00 | 0.00 | 0.00 | 99 | 1018.4 |
| 20260906065525 | 65 | 294 | 1.7 | 1.7 | 0.00 | 0.00 | 0.00 | 99 | 1018.3 |
| 20260906065021 | 65 | 294 | 0.0 | 0.0 | 0.00 | 0.00 | 0.00 | 99 | 1018.3 |
| 20260906064517 | 65 | 294 | 0.0 | 0.0 | 0.00 | 0.00 | 0.00 | 99 | 1018.2 |
| 20260906064016 | 65 | 294 | 0.0 | 0.0 | 0.00 | 0.00 | 0.00 | 99 | 1018.3 |
| 20260906063512 | 65 | 294 | 0.0 | 0.0 | 0.00 | 0.00 | 0.00 | 99 | 1018.4 |
| 20260906063008 | 65 | 294 | 0.0 | 0.0 | 0.00 | 0.00 | 0.00 | 99 | 1018.4 |
| 20260906062502 | 65 | 294 | 0.0 | 0.0 | 0.00 | 0.00 | 0.00 | 99 | 1018.6 |
| 20260906061957 | 65 | 294 | 0.0 | 0.0 | 0.00 | 0.00 | 0.00 | 99 | 1018.8 |
| 20260906061453 | 65 | 294 | 0.0 | 0.0 | 0.00 | 0.00 | 0.00 | 99 | 1018.6 |
| 20260906060947 | 65 | 294 | 0.0 | 0.0 | 0.00 | 0.00 | 0.00 | 99 | 1018.8 |
| 20260906060444 | 65 | 294 | 0.0 | 0.0 | 0.00 | 0.00 | 0.00 | 99 | 1018.7 |
| 20260906055940 | 65 | 294 | 0.9 | 0.9 | 0.00 | 0.00 | 0.00 | 99 | 1018.8 |
| 20260906055436 | 65 | 294 | 0.9 | 0.9 | 0.00 | 0.00 | 0.00 | 99 | 1018.9 |
| 20260906054931 | 65 | 294 | 0.0 | 0.0 | 0.00 | 0.00 | 0.00 | 99 | 1018.8 |
| 20260906054426 | 65 | 294 | 0.0 | 0.0 | 0.00 | 0.00 | 0.00 | 99 | 1018.9 |
| 20260906053922 | 65 | 294 | 0.0 | 0.0 | 0.00 | 0.00 | 0.00 | 99 | 1018.9 |
| 20260906053418 | 65 | 294 | 0.0 | 0.0 | 0.00 | 0.00 | 0.00 | 99 | 1018.7 |
| 20260906052913 | 65 | 294 | 0.0 | 0.0 | 0.00 | 0.00 | 0.00 | 99 | 1018.8 |
| 20260906052409 | 66 | 294 | 0.0 | 0.0 | 0.00 | 0.00 | 0.00 | 99 | 1018.9 |
| 20260906051906 | 66 | 295 | 0.9 | 1.7 | 0.00 | 0.00 | 0.00 | 99 | 1018.6 |
| 20260906051406 | 65 | 295 | 0.0 | 0.0 | 0.00 | 0.00 | 0.00 | 99 | 1018.7 |
| 20260906050902 | 66 | 295 | 0.0 | 0.0 | 0.00 | 0.00 | 0.00 | 99 | 1018.7 |
| 20260906050356 | 66 | 295 | 0.0 | 0.9 | 0.00 | 0.00 | 0.00 | 99 | 1018.8 |
| 20260906045856 | 65 | 305 | 0.0 | 0.0 | 0.00 | 0.00 | 0.00 | 99 | 1018.6 |
| 20260906045355 | 65 | 305 | 0.0 | 0.0 | 0.00 | 0.00 | 0.00 | 99 | 1018.8 |
| 20260906044851 | 66 | 305 | 0.0 | 0.0 | 0.00 | 0.00 | 0.00 | 99 | 1018.7 |
| 20260906044351 | 66 | 305 | 0.0 | 0.0 | 0.00 | 0.00 | 0.00 | 99 | 1018.6 |
| 20260906043847 | 67 | 305 | 0.0 | 0.0 | 0.00 | 0.00 | 0.00 | 99 | 1018.6 |
| 20260906043344 | 66 | 305 | 0.0 | 0.0 | 0.00 | 0.00 | 0.00 | 99 | 1018.6 |
| 20260906042844 | 66 | 305 | 0.0 | 0.0 | 0.00 | 0.00 | 0.00 | 99 | 1018.5 |
| 20260906042342 | 67 | 305 | 0.0 | 0.0 | 0.00 | 0.00 | 0.00 | 99 | 1018.6 |
| 20260906041838 | 67 | 305 | 0.0 | 0.0 | 0.00 | 0.00 | 0.00 | 99 | 1018.9 |
| 20260906041334 | 67 | 305 | 0.0 | 0.0 | 0.00 | 0.00 | 0.00 | 99 | 1018.9 |
| 20260906040834 | 67 | 305 | 0.0 | 0.0 | 0.00 | 0.00 | 0.00 | 99 | 1018.7 |
| 20260906040329 | 67 | 305 | 0.0 | 0.0 | 0.00 | 0.00 | 0.00 | 99 | 1018.7 |
| 20260906035824 | 67 | 305 | 0.0 | 0.0 | 0.00 | 0.00 | 0.00 | 99 | 1018.9 |
| 20260906035319 | 67 | 305 | 0.9 | 0.9 | 0.00 | 0.00 | 0.00 | 99 | 1019.2 |
| 20260906034815 | 67 | 305 | 0.9 | 0.9 | 0.00 | 0.00 | 0.00 | 99 | 1019.3 |
| 20260906034314 | 67 | 305 | 0.9 | 1.7 | 0.00 | 0.00 | 0.00 | 99 | 1019.3 |
| 20260906033811 | 67 | 305 | 1.7 | 1.7 | 0.00 | 0.00 | 0.00 | 99 | 1019.3 |
| 20260906033309 | 67 | 305 | 1.7 | 1.7 | 0.00 | 0.00 | 0.00 | 99 | 1019.2 |
| 20260906032806 | 67 | 305 | 1.7 | 2.6 | 0.00 | 0.00 | 0.00 | 99 | 1019.3 |
| 20260906032305 | 67 | 284 | 1.7 | 1.7 | 0.00 | 0.00 | 0.00 | 99 | 1019.3 |
| 20260906031757 | 67 | 284 | 1.7 | 1.7 | 0.00 | 0.00 | 0.00 | 98 | 1019.3 |
| 20260906031253 | 67 | 284 | 1.7 | 1.7 | 0.00 | 0.00 | 0.00 | 98 | 1019.4 |
| 20260906030752 | 67 | 284 | 0.9 | 0.9 | 0.00 | 0.00 | 0.00 | 99 | 1019.3 |
| 20260906030247 | 67 | 284 | 0.0 | 0.0 | 0.00 | 0.00 | 0.00 | 99 | 1019.2 |
| 20260906025747 | 67 | 284 | 0.0 | 0.0 | 0.00 | 0.00 | 0.00 | 98 | 1019.3 |
| 20260906025241 | 67 | 284 | 0.0 | 0.0 | 0.00 | 0.00 | 0.00 | 98 | 1019.4 |
| 20260906024740 | 67 | 284 | 0.0 | 0.0 | 0.00 | 0.00 | 0.00 | 98 | 1019.3 |
| 20260906024239 | 67 | 284 | 0.0 | 0.0 | 0.00 | 0.00 | 0.00 | 98 | 1019.3 |
| 20260906023735 | 67 | 284 | 0.0 | 0.0 | 0.00 | 0.00 | 0.00 | 98 | 1019.4 |
| 20260906023230 | 68 | 284 | 0.0 | 0.0 | 0.00 | 0.00 | 0.00 | 97 | 1019.6 |
| 20260906022726 | 68 | 284 | 0.9 | 0.9 | 0.00 | 0.00 | 0.00 | 97 | 1019.4 |
| 20260906022221 | 68 | 284 | 0.9 | 0.9 | 0.00 | 0.00 | 0.00 | 97 | 1019.6 |
| 20260906021717 | 68 | 284 | 1.7 | 1.7 | 0.00 | 0.00 | 0.00 | 97 | 1019.3 |
| 20260906021215 | 68 | 284 | 0.0 | 0.0 | 0.00 | 0.00 | 0.00 | 97 | 1019.4 |
| 20260906020711 | 68 | 284 | 0.0 | 0.0 | 0.00 | 0.00 | 0.00 | 97 | 1019.4 |
| 20260906020206 | 68 | 284 | 0.0 | 0.0 | 0.00 | 0.00 | 0.00 | 96 | 1019.3 |
| 20260906015706 | 68 | 284 | 0.0 | 0.0 | 0.00 | 0.00 | 0.00 | 96 | 1019.3 |
| 20260906015205 | 69 | 284 | 0.0 | 0.9 | 0.00 | 0.00 | 0.00 | 95 | 1019.4 |
| 20260906014704 | 68 | 284 | 1.7 | 1.7 | 0.00 | 0.00 | 0.00 | 96 | 1019.4 |
| 20260906014200 | 68 | 284 | 0.0 | 0.0 | 0.00 | 0.00 | 0.00 | 96 | 1019.2 |
| 20260906013656 | 68 | 284 | 0.0 | 0.0 | 0.00 | 0.00 | 0.00 | 97 | 1019.3 |
| 20260906013151 | 68 | 284 | 0.0 | 0.0 | 0.00 | 0.00 | 0.00 | 96 | 1019.2 |
| 20260906012652 | 69 | 284 | 0.0 | 0.0 | 0.00 | 0.00 | 0.00 | 95 | 1019.2 |
| 20260906012151 | 69 | 284 | 0.0 | 0.0 | 0.00 | 0.00 | 0.00 | 95 | 1019.0 |
| 20260906011647 | 69 | 284 | 0.0 | 0.0 | 0.00 | 0.00 | 0.00 | 94 | 1019.0 |
| 20260906011142 | 69 | 284 | 0.0 | 0.0 | 0.00 | 0.00 | 0.00 | 94 | 1018.8 |
| 20260906010637 | 69 | 284 | 0.0 | 0.0 | 0.00 | 0.00 | 0.00 | 94 | 1018.7 |
| 20260906010134 | 69 | 284 | 0.0 | 0.0 | 0.00 | 0.00 | 0.00 | 93 | 1018.7 |
| 20260906005633 | 70 | 284 | 0.0 | 0.0 | 0.00 | 0.00 | 0.00 | 92 | 1018.8 |
| 20260906005132 | 70 | 284 | 0.0 | 0.0 | 0.00 | 0.00 | 0.00 | 91 | 1018.7 |
| 20260906004632 | 70 | 284 | 0.0 | 0.0 | 0.00 | 0.00 | 0.00 | 91 | 1018.6 |
| 20260906004121 | 70 | 284 | 0.0 | 0.0 | 0.00 | 0.00 | 0.00 | 91 | 1018.6 |
| 20260906003617 | 70 | 284 | 0.0 | 0.0 | 0.00 | 0.00 | 0.00 | 90 | 1018.3 |
| 20260906003112 | 71 | 284 | 0.9 | 0.9 | 0.00 | 0.00 | 0.00 | 90 | 1018.6 |
| 20260906002606 | 71 | 284 | 0.0 | 1.7 | 0.00 | 0.00 | 0.00 | 90 | 1018.7 |
| 20260906002101 | 71 | 284 | 0.9 | 1.7 | 0.00 | 0.00 | 0.00 | 89 | 1018.5 |
| 20260906001551 | 71 | 284 | 0.9 | 1.7 | 0.00 | 0.00 | 0.00 | 89 | 1018.5 |
| 20260906001051 | 71 | 284 | 0.9 | 1.7 | 0.00 | 0.00 | 0.00 | 88 | 1018.5 |
| 20260906000546 | 72 | 280 | 0.9 | 1.7 | 0.00 | 0.00 | 0.00 | 87 | 1018.6 |
| 20260906000041 | 72 | 278 | 1.7 | 2.6 | 0.00 | 0.00 | 0.00 | 86 | 1018.6 |
| 20260905235535 | 73 | 287 | 1.7 | 2.6 | 0.00 | 0.00 | 0.00 | 86 | 1018.5 |
| 20260905235030 | 73 | 287 | 1.7 | 1.7 | 0.00 | 0.00 | 0.00 | 85 | 1018.5 |
| 20260905234527 | 73 | 284 | 2.6 | 2.6 | 0.00 | 0.00 | 0.00 | 85 | 1018.5 |
| 20260905234026 | 73 | 301 | 1.7 | 2.6 | 0.00 | 0.00 | 0.00 | 85 | 1018.5 |
| 20260905233521 | 73 | 311 | 2.6 | 3.5 | 0.00 | 0.00 | 0.00 | 84 | 1018.4 |
| 20260905233020 | 74 | 308 | 2.6 | 5.2 | 0.00 | 0.00 | 0.00 | 83 | 1018.3 |
| 20260905232516 | 74 | 324 | 3.5 | 6.1 | 0.00 | 0.00 | 0.00 | 82 | 1018.4 |
| 20260905232012 | 74 | 301 | 5.2 | 6.1 | 0.00 | 0.00 | 0.00 | 82 | 1018.5 |
| 20260905231507 | 74 | 306 | 4.3 | 7.0 | 0.00 | 0.00 | 0.00 | 82 | 1018.5 |
| 20260905231003 | 75 | 319 | 6.1 | 7.0 | 0.00 | 0.00 | 0.00 | 81 | 1018.6 |
| 20260905230502 | 75 | 313 | 3.5 | 5.2 | 0.00 | 0.00 | 0.00 | 81 | 1018.5 |
| 20260905230000 | 75 | 314 | 3.5 | 6.1 | 0.00 | 0.00 | 0.00 | 80 | 1018.6 |
| 20260905225455 | 75 | 334 | 3.5 | 6.1 | 0.00 | 0.00 | 0.00 | 79 | 1018.7 |
| 20260905224951 | 75 | 325 | 4.3 | 6.1 | 0.00 | 0.00 | 0.00 | 79 | 1018.6 |
| 20260905224446 | 76 | 315 | 4.3 | 7.0 | 0.00 | 0.00 | 0.00 | 79 | 1018.4 |
| 20260905223944 | 76 | 328 | 1.7 | 3.5 | 0.00 | 0.00 | 0.00 | 78 | 1018.7 |
| 20260905223443 | 76 | 315 | 2.6 | 6.1 | 0.00 | 0.00 | 0.00 | 79 | 1018.7 |
| 20260905222938 | 78 | 325 | 6.1 | 7.8 | 0.00 | 0.00 | 0.00 | 76 | 1018.6 |
| 20260905222437 | 78 | 315 | 3.5 | 7.8 | 0.00 | 0.00 | 0.00 | 75 | 1018.5 |
| 20260905221933 | 78 | 317 | 3.5 | 5.2 | 0.00 | 0.00 | 0.00 | 76 | 1018.4 |
| 20260905221429 | 78 | 345 | 3.5 | 6.1 | 0.00 | 0.00 | 0.00 | 75 | 1018.4 |
| 20260905220926 | 79 | 338 | 1.7 | 3.5 | 0.00 | 0.00 | 0.00 | 75 | 1018.2 |
| 20260905220421 | 79 | 341 | 4.3 | 5.2 | 0.00 | 0.00 | 0.00 | 74 | 1018.2 |
| 20260905215920 | 78 | 343 | 5.2 | 6.1 | 0.00 | 0.00 | 0.00 | 75 | 1018.4 |
| 20260905215416 | 79 | 344 | 5.2 | 7.0 | 0.00 | 0.00 | 0.00 | 73 | 1018.1 |
| 20260905214912 | 79 | 337 | 1.7 | 3.5 | 0.00 | 0.00 | 0.00 | 73 | 1018.1 |
| 20260905214408 | 79 | 346 | 3.5 | 3.5 | 0.00 | 0.00 | 0.00 | 71 | 1018.1 |
| 20260905213908 | 79 | 343 | 3.5 | 5.2 | 0.00 | 0.00 | 0.00 | 71 | 1018.0 |
| 20260905213404 | 78 | 327 | 1.7 | 2.6 | 0.00 | 0.00 | 0.00 | 74 | 1017.9 |
| 20260905212859 | 79 | 333 | 2.6 | 3.5 | 0.00 | 0.00 | 0.00 | 73 | 1017.9 |
| 20260905212354 | 79 | 352 | 3.5 | 5.2 | 0.00 | 0.00 | 0.00 | 70 | 1018.0 |
| 20260905211853 | 79 | 355 | 2.6 | 3.5 | 0.00 | 0.00 | 0.00 | 69 | 1017.9 |
| 20260905211349 | 79 | 27 | 3.5 | 6.1 | 0.00 | 0.00 | 0.00 | 71 | 1017.7 |
| 20260905210845 | 80 | 326 | 3.5 | 7.0 | 0.00 | 0.00 | 0.00 | 72 | 1017.9 |
| 20260905210345 | 80 | 329 | 3.5 | 6.1 | 0.00 | 0.00 | 0.00 | 71 | 1017.9 |
| 20260905205839 | 80 | 344 | 2.6 | 5.2 | 0.00 | 0.00 | 0.00 | 71 | 1017.7 |
| 20260905205338 | 80 | 358 | 2.6 | 3.5 | 0.00 | 0.00 | 0.00 | 69 | 1017.6 |
| 20260905204833 | 80 | 328 | 1.7 | 7.0 | 0.00 | 0.00 | 0.00 | 68 | 1018.0 |
| 20260905204329 | 80 | 340 | 3.5 | 7.0 | 0.00 | 0.00 | 0.00 | 70 | 1017.6 |
| 20260905203827 | 80 | 311 | 5.2 | 7.8 | 0.00 | 0.00 | 0.00 | 68 | 1017.6 |
| 20260905203324 | 80 | 347 | 4.3 | 9.6 | 0.00 | 0.00 | 0.00 | 66 | 1017.7 |
| 20260905202819 | 80 | 306 | 5.2 | 7.0 | 0.00 | 0.00 | 0.00 | 73 | 1017.6 |
| 20260905202314 | 80 | 316 | 5.2 | 7.8 | 0.00 | 0.00 | 0.00 | 72 | 1017.6 |
| 20260905201809 | 80 | 327 | 5.2 | 6.1 | 0.00 | 0.00 | 0.00 | 69 | 1018.0 |
| 20260905201304 | 80 | 340 | 3.5 | 7.0 | 0.00 | 0.00 | 0.00 | 72 | 1017.9 |
| 20260905200759 | 80 | 347 | 3.5 | 6.1 | 0.00 | 0.00 | 0.00 | 72 | 1017.7 |
| 20260905200255 | 80 | 305 | 6.1 | 8.7 | 0.00 | 0.00 | 0.00 | 72 | 1018.0 |
| 20260905195752 | 80 | 329 | 6.1 | 7.8 | 0.00 | 0.00 | 0.00 | 72 | 1017.9 |
| 20260905195248 | 80 | 300 | 4.3 | 7.0 | 0.00 | 0.00 | 0.00 | 73 | 1017.7 |
| 20260905194744 | 80 | 333 | 5.2 | 11.3 | 0.00 | 0.00 | 0.00 | 76 | 1018.0 |
| 20260905194243 | 79 | 323 | 5.2 | 8.7 | 0.00 | 0.00 | 0.00 | 76 | 1018.1 |
| 20260905193742 | 79 | 339 | 5.2 | 7.0 | 0.00 | 0.00 | 0.00 | 77 | 1018.2 |
| 20260905193237 | 79 | 321 | 3.5 | 8.7 | 0.00 | 0.00 | 0.00 | 78 | 1018.3 |
| 20260905192733 | 79 | 322 | 5.2 | 7.8 | 0.00 | 0.00 | 0.00 | 76 | 1018.3 |
| 20260905192229 | 79 | 319 | 4.3 | 9.6 | 0.00 | 0.00 | 0.00 | 75 | 1018.3 |
| 20260905191728 | 79 | 310 | 5.2 | 7.0 | 0.00 | 0.00 | 0.00 | 75 | 1018.2 |
| 20260905191227 | 79 | 314 | 7.8 | 9.6 | 0.00 | 0.00 | 0.00 | 77 | 1018.4 |
| 20260905190726 | 79 | 309 | 7.8 | 11.3 | 0.00 | 0.00 | 0.00 | 77 | 1018.6 |
| 20260905190224 | 79 | 318 | 5.2 | 7.8 | 0.00 | 0.00 | 0.00 | 77 | 1018.9 |
| 20260905185723 | 79 | 316 | 5.2 | 9.6 | 0.00 | 0.00 | 0.00 | 76 | 1018.7 |
| 20260905185218 | 79 | 289 | 4.3 | 8.7 | 0.00 | 0.00 | 0.00 | 81 | 1018.7 |
| 20260905184713 | 79 | 289 | 4.3 | 5.2 | 0.00 | 0.00 | 0.00 | 82 | 1018.8 |
| 20260905184212 | 78 | 309 | 3.5 | 7.0 | 0.00 | 0.00 | 0.00 | 83 | 1018.9 |
| 20260905183711 | 78 | 333 | 1.7 | 2.6 | 0.00 | 0.00 | 0.00 | 83 | 1018.8 |
| 20260905183207 | 77 | 290 | 1.7 | 1.7 | 0.00 | 0.00 | 0.00 | 83 | 1018.9 |
| 20260905182706 | 78 | 306 | 4.3 | 6.1 | 0.00 | 0.00 | 0.00 | 85 | 1019.2 |
| 20260905182206 | 77 | 322 | 0.0 | 5.2 | 0.00 | 0.00 | 0.00 | 84 | 1018.9 |
| 20260905181702 | 78 | 289 | 3.5 | 7.0 | 0.00 | 0.00 | 0.00 | 86 | 1019.0 |
| 20260905181200 | 78 | 344 | 1.7 | 3.5 | 0.00 | 0.00 | 0.00 | 82 | 1019.0 |
| 20260905180655 | 77 | 353 | 1.7 | 2.6 | 0.00 | 0.00 | 0.00 | 83 | 1019.4 |
| 20260905180151 | 76 | 5 | 3.5 | 6.1 | 0.00 | 0.00 | 0.00 | 90 | 1019.4 |
| 20260905175649 | 76 | 354 | 7.0 | 7.0 | 0.00 | 0.00 | 0.00 | 88 | 1019.4 |
| 20260905175145 | 76 | 309 | 3.5 | 5.2 | 0.00 | 0.00 | 0.00 | 90 | 1019.5 |
| 20260905174641 | 76 | 297 | 4.3 | 5.2 | 0.00 | 0.00 | 0.00 | 90 | 1019.6 |
| 20260905174136 | 74 | 299 | 1.7 | 2.6 | 0.00 | 0.00 | 0.00 | 92 | 1019.6 |
| 20260905173632 | 74 | 261 | 4.3 | 6.1 | 0.00 | 0.00 | 0.00 | 92 | 1019.8 |
| 20260905173128 | 73 | 288 | 2.6 | 5.2 | 0.00 | 0.00 | 0.00 | 94 | 1019.9 |
| 20260905172626 | 73 | 280 | 1.7 | 2.6 | 0.00 | 0.00 | 0.00 | 95 | 1019.9 |
| 20260905172121 | 72 | 301 | 2.6 | 3.5 | 0.00 | 0.00 | 0.00 | 96 | 1020.1 |
| 20260905171618 | 72 | 295 | 3.5 | 5.2 | 0.00 | 0.00 | 0.00 | 95 | 1019.8 |
| 20260905171113 | 72 | 287 | 4.3 | 6.1 | 0.00 | 0.00 | 0.00 | 95 | 1019.9 |
| 20260905170610 | 72 | 308 | 2.6 | 3.5 | 0.00 | 0.00 | 0.00 | 94 | 1020.0 |
| 20260905170105 | 73 | 326 | 3.5 | 5.2 | 0.00 | 0.00 | 0.00 | 93 | 1019.9 |
| 20260905165605 | 73 | 313 | 3.5 | 6.1 | 0.00 | 0.00 | 0.00 | 94 | 1019.9 |
| 20260905165100 | 73 | 277 | 1.7 | 3.5 | 0.00 | 0.00 | 0.00 | 93 | 1019.9 |
| 20260905164555 | 73 | 282 | 2.6 | 6.1 | 0.00 | 0.00 | 0.00 | 93 | 1019.8 |
| 20260905164049 | 73 | 172 | 0.9 | 5.2 | 0.00 | 0.00 | 0.00 | 94 | 1019.8 |
| 20260905163546 | 72 | 231 | 3.5 | 5.2 | 0.00 | 0.00 | 0.00 | 94 | 1019.7 |
| 20260905163042 | 72 | 174 | 2.6 | 5.2 | 0.00 | 0.00 | 0.00 | 95 | 1019.5 |
| 20260905162538 | 72 | 220 | 1.7 | 5.2 | 0.00 | 0.00 | 0.00 | 95 | 1019.6 |
| 20260905162032 | 71 | 211 | 1.7 | 3.5 | 0.00 | 0.00 | 0.00 | 96 | 1019.8 |
| 20260905161531 | 71 | 204 | 3.5 | 5.2 | 0.00 | 0.00 | 0.00 | 95 | 1019.8 |
| 20260905161029 | 71 | 241 | 1.7 | 1.7 | 0.00 | 0.00 | 0.00 | 95 | 1020.2 |
| 20260905160528 | 71 | 198 | 2.6 | 2.6 | 0.00 | 0.00 | 0.00 | 94 | 1020.1 |
| 20260905160028 | 71 | 220 | 0.0 | 0.9 | 0.00 | 0.00 | 0.00 | 94 | 1020.4 |
| 20260905155528 | 71 | 220 | 2.6 | 2.6 | 0.00 | 0.00 | 0.00 | 93 | 1020.8 |
| 20260905155026 | 71 | 272 | 0.9 | 1.7 | 0.00 | 0.00 | 0.00 | 95 | 1020.9 |
| 20260905154522 | 71 | 299 | 1.7 | 2.6 | 0.00 | 0.00 | 0.00 | 94 | 1021.1 |
| 20260905154018 | 71 | 306 | 3.5 | 3.5 | 0.00 | 0.00 | 0.00 | 94 | 1021.2 |
| 20260905153514 | 71 | 355 | 1.7 | 3.5 | 0.00 | 0.00 | 0.00 | 95 | 1021.3 |
| 20260905153013 | 71 | 353 | 3.5 | 5.2 | 0.00 | 0.00 | 0.00 | 94 | 1021.2 |
| 20260905152513 | 71 | 318 | 3.5 | 3.5 | 0.00 | 0.00 | 0.00 | 96 | 1021.5 |
| 20260905152008 | 70 | 326 | 3.5 | 3.5 | 0.00 | 0.00 | 0.00 | 97 | 1021.4 |
| 20260905151504 | 70 | 320 | 2.6 | 6.1 | 0.00 | 0.00 | 0.00 | 98 | 1021.7 |
| 20260905150959 | 70 | 321 | 1.7 | 5.2 | 0.00 | 0.00 | 0.00 | 99 | 1021.6 |
| 20260905150453 | 69 | 335 | 2.6 | 3.5 | 0.00 | 0.00 | 0.00 | 99 | 1021.6 |
| 20260905145950 | 69 | 305 | 3.5 | 3.5 | 0.00 | 0.00 | 0.00 | 99 | 1021.6 |
| 20260905145445 | 68 | 340 | 3.5 | 5.2 | 0.00 | 0.00 | 0.00 | 99 | 1021.4 |
| 20260905144944 | 67 | 341 | 1.7 | 2.6 | 0.00 | 0.00 | 0.00 | 99 | 1021.5 |
| 20260905144440 | 67 | 8 | 0.0 | 2.6 | 0.00 | 0.00 | 0.00 | 99 | 1021.2 |
| 20260905143939 | 67 | 308 | 0.0 | 0.9 | 0.00 | 0.00 | 0.00 | 99 | 1021.7 |
| 20260905143432 | 67 | 299 | 0.9 | 1.7 | 0.00 | 0.00 | 0.00 | 99 | 1021.6 |
| 20260905142927 | 67 | 5 | 0.0 | 2.6 | 0.00 | 0.00 | 0.00 | 99 | 1021.8 |
| 20260905142426 | 67 | 9 | 1.7 | 5.2 | 0.00 | 0.00 | 0.00 | 99 | 1021.5 |
| 20260905141921 | 67 | 3 | 1.7 | 3.5 | 0.00 | 0.00 | 0.00 | 99 | 1021.6 |
| 20260905141416 | 69 | 44 | 2.6 | 6.1 | 0.00 | 0.00 | 0.00 | 97 | 1021.2 |
| 20260905140913 | 69 | 44 | 2.6 | 6.1 | 0.00 | 0.00 | 0.00 | 97 | 1021.2 |
| 20260905140408 | 69 | 346 | 1.7 | 6.1 | 0.00 | 0.00 | 0.00 | 97 | 1021.5 |
| 20260905135906 | 69 | 53 | 5.2 | 7.8 | 0.00 | 0.00 | 0.00 | 98 | 1021.4 |
| 20260905135402 | 72 | 295 | 0.9 | 2.6 | 0.00 | 0.00 | 0.00 | 95 | 1020.2 |
| 20260905134858 | 72 | 313 | 2.6 | 3.5 | 0.00 | 0.00 | 0.00 | 95 | 1020.6 |
| 20260905134356 | 73 | 282 | 2.6 | 3.5 | 0.00 | 0.00 | 0.00 | 95 | 1020.2 |
| 20260905133850 | 73 | 293 | 3.5 | 3.5 | 0.00 | 0.00 | 0.00 | 94 | 1020.1 |
| 20260905133346 | 73 | 301 | 3.5 | 5.2 | 0.00 | 0.00 | 0.00 | 94 | 1020.2 |
| 20260905132845 | 73 | 269 | 4.3 | 6.1 | 0.00 | 0.00 | 0.00 | 93 | 1020.1 |
| 20260905132340 | 74 | 310 | 3.5 | 3.5 | 0.00 | 0.00 | 0.00 | 92 | 1020.2 |
| 20260905131835 | 75 | 297 | 3.5 | 5.2 | 0.00 | 0.00 | 0.00 | 91 | 1020.1 |
| 20260905131330 | 75 | 275 | 2.6 | 3.5 | 0.00 | 0.00 | 0.00 | 91 | 1020.1 |
| 20260905130826 | 75 | 281 | 1.7 | 3.5 | 0.00 | 0.00 | 0.00 | 91 | 1020.2 |
| 20260905130324 | 75 | 282 | 1.7 | 2.6 | 0.00 | 0.00 | 0.00 | 90 | 1020.1 |
| 20260905125820 | 74 | 276 | 0.0 | 0.0 | 0.00 | 0.00 | 0.00 | 94 | 1020.0 |
| 20260905125315 | 73 | 276 | 0.0 | 0.0 | 0.00 | 0.00 | 0.00 | 98 | 1020.2 |
| 20260905124811 | 71 | 277 | 0.0 | 0.9 | 0.00 | 0.00 | 0.00 | 99 | 1020.1 |
| 20260905124307 | 70 | 285 | 0.0 | 0.0 | 0.00 | 0.00 | 0.00 | 99 | 1020.2 |
| 20260905123801 | 70 | 285 | 0.0 | 0.0 | 0.00 | 0.00 | 0.00 | 99 | 1020.2 |
| 20260905123259 | 69 | 285 | 0.0 | 0.0 | 0.00 | 0.00 | 0.00 | 99 | 1019.9 |
| 20260905122758 | 69 | 285 | 0.0 | 0.0 | 0.00 | 0.00 | 0.00 | 99 | 1020.1 |
| 20260905122257 | 69 | 289 | 0.0 | 0.0 | 0.00 | 0.00 | 0.00 | 99 | 1020.3 |
| 20260905121753 | 69 | 297 | 0.0 | 0.0 | 0.00 | 0.00 | 0.00 | 99 | 1020.1 |
| 20260905121249 | 68 | 297 | 0.0 | 0.0 | 0.00 | 0.00 | 0.00 | 99 | 1019.8 |
| 20260905120747 | 67 | 297 | 0.0 | 0.0 | 0.00 | 0.00 | 0.00 | 99 | 1019.7 |
| 20260905120242 | 67 | 297 | 0.0 | 0.0 | 0.00 | 0.00 | 0.00 | 99 | 1020.1 |
| 20260905115737 | 67 | 297 | 0.0 | 0.0 | 0.00 | 0.00 | 0.00 | 99 | 1019.8 |
| 20260905115237 | 67 | 297 | 0.0 | 1.7 | 0.00 | 0.00 | 0.00 | 99 | 1019.9 |
| 20260905114732 | 66 | 296 | 0.9 | 1.7 | 0.00 | 0.00 | 0.00 | 99 | 1019.7 |
| 20260905114230 | 66 | 296 | 0.0 | 0.9 | 0.00 | 0.00 | 0.00 | 99 | 1019.9 |
| 20260905113729 | 65 | 295 | 0.0 | 0.0 | 0.00 | 0.00 | 0.00 | 99 | 1019.6 |
| 20260905113225 | 65 | 317 | 0.0 | 0.0 | 0.00 | 0.00 | 0.00 | 99 | 1019.9 |
| 20260905112726 | 65 | 317 | 0.0 | 0.0 | 0.00 | 0.00 | 0.00 | 99 | 1019.8 |
| 20260905112221 | 65 | 317 | 0.0 | 0.0 | 0.00 | 0.00 | 0.00 | 99 | 1019.9 |
| 20260905111720 | 65 | 317 | 0.0 | 0.0 | 0.00 | 0.00 | 0.00 | 99 | 1019.8 |